createdAt,value
2019-05-29T00:00:09.895Z,63.11
2019-05-29T00:03:18.727Z,62.74
2019-05-29T00:06:27.399Z,62.86
2019-05-29T00:09:46.305Z,62.53
2019-05-29T00:12:55.027Z,63.55
2019-05-29T00:16:03.828Z,63.15
2019-05-29T00:19:12.711Z,63.26
2019-05-29T00:22:21.693Z,63.15
2019-05-29T00:25:41.832Z,63.32
2019-05-29T00:28:50.354Z,63.37
2019-05-29T00:31:58.882Z,64.02
2019-05-29T00:35:17.981Z,64.21
2019-05-29T00:38:36.918Z,63.76
2019-05-29T00:41:45.549Z,63.72
2019-05-29T00:44:54.152Z,63.73
2019-05-29T00:48:02.833Z,63.94
2019-05-29T00:51:11.595Z,64.37
2019-05-29T00:54:20.198Z,64.25
2019-05-29T00:57:28.873Z,64.23
2019-05-29T01:00:37.683Z,64.59
2019-05-29T01:03:46.200Z,64.53
2019-05-29T01:07:05.022Z,64.04
2019-05-29T01:10:14.686Z,64.48
2019-05-29T01:13:23.732Z,65.02
2019-05-29T01:16:32.337Z,65.29
2019-05-29T01:19:39.658Z,65.47
2019-05-29T01:22:48.206Z,65.43
2019-05-29T01:25:56.812Z,65.81
2019-05-29T01:29:15.619Z,66.17
2019-05-29T01:32:24.272Z,66.10
2019-05-29T01:35:32.896Z,65.98
2019-05-29T01:38:41.550Z,66.18
2019-05-29T01:41:50.235Z,65.87
2019-05-29T01:45:07.864Z,65.55
2019-05-29T01:48:09.248Z,65.94
2019-05-29T01:51:17.750Z,65.77
2019-05-29T01:54:26.402Z,65.87
2019-05-29T01:57:46.305Z,66.26
2019-05-29T02:00:54.919Z,66.28
2019-05-29T02:04:03.566Z,67.38
2019-05-29T02:07:11.341Z,67.20
2019-05-29T02:10:20.300Z,67.96
2019-05-29T02:13:29.223Z,67.38
2019-05-29T02:16:37.802Z,67.20
2019-05-29T02:19:46.554Z,66.88
2019-05-29T02:22:55.455Z,66.68
2019-05-29T02:26:04.180Z,66.41
2019-05-29T02:29:12.832Z,66.33
2019-05-29T02:32:21.422Z,67.24
2019-05-29T02:35:30.023Z,67.49
2019-05-29T02:38:38.853Z,67.15
2019-05-29T02:41:47.557Z,66.52
2019-05-29T02:44:56.163Z,66.78
2019-05-29T02:48:15.028Z,66.38
2019-05-29T02:51:24.277Z,66.38
2019-05-29T02:54:33.012Z,66.39
2019-05-29T02:57:52.028Z,66.60
2019-05-29T03:01:00.911Z,67.10
2019-05-29T03:04:09.520Z,66.55
2019-05-29T03:07:18.217Z,66.38
2019-05-29T03:10:26.912Z,65.58
2019-05-29T03:13:35.581Z,65.50
2019-05-29T03:16:44.244Z,65.51
2019-05-29T03:19:52.953Z,65.82
2019-05-29T03:23:01.570Z,65.69
2019-05-29T03:26:10.183Z,65.51
2019-05-29T03:29:18.859Z,65.82
2019-05-29T03:32:30.469Z,65.67
2019-05-29T03:35:48.794Z,66.07
2019-05-29T03:38:57.914Z,65.78
2019-05-29T03:42:06.544Z,65.74
2019-05-29T03:45:16.649Z,66.09
2019-05-29T03:48:25.945Z,66.31
2019-05-29T03:51:37.210Z,66.24
2019-05-29T03:54:46.592Z,65.99
2019-05-29T03:57:55.343Z,66.24
2019-05-29T04:01:04.146Z,66.25
2019-05-29T04:04:12.758Z,66.19
2019-05-29T04:07:21.490Z,66.22
2019-05-29T04:10:32.849Z,66.23
2019-05-29T04:13:41.486Z,66.06
2019-05-29T04:16:59.335Z,66.18
2019-05-29T04:20:02.374Z,66.22
2019-05-29T04:23:10.934Z,65.88
2019-05-29T04:26:21.190Z,65.16
2019-05-29T04:29:30.124Z,64.94
2019-05-29T04:32:38.858Z,65.33
2019-05-29T04:35:47.636Z,64.96
2019-05-29T04:38:56.444Z,64.22
2019-05-29T04:42:05.199Z,63.56
2019-05-29T04:45:14.121Z,63.27
2019-05-29T04:48:24.246Z,62.85
2019-05-29T04:51:33.120Z,62.80
2019-05-29T04:54:41.918Z,62.50
2019-05-29T04:57:51.097Z,61.02
2019-05-29T05:00:59.894Z,60.95
2019-05-29T05:04:08.524Z,60.18
2019-05-29T05:07:17.169Z,60.66
2019-05-29T05:10:41.428Z,60.96
2019-05-29T05:13:50.349Z,60.90
2019-05-29T05:17:00.518Z,60.21
2019-05-29T05:20:19.318Z,59.57
2019-05-29T05:23:28.002Z,59.36
2019-05-29T05:26:36.819Z,60.03
2019-05-29T05:29:45.572Z,59.64
2019-05-29T05:32:54.233Z,58.45
2019-05-29T05:36:01.417Z,56.83
2019-05-29T05:39:10.285Z,56.45
2019-05-29T05:42:19.992Z,55.61
2019-05-29T05:45:28.592Z,52.75
2019-05-29T05:48:47.463Z,51.33
2019-05-29T05:51:56.089Z,50.00
2019-05-29T05:55:04.872Z,48.37
2019-05-29T05:58:13.546Z,48.81
2019-05-29T06:01:22.168Z,48.00
2019-05-29T06:04:31.810Z,49.67
2019-05-29T06:07:50.755Z,49.43
2019-05-29T06:11:01.053Z,48.44
2019-05-29T06:14:09.768Z,48.50
2019-05-29T06:17:21.792Z,46.52
2019-05-29T06:20:28.866Z,46.47
2019-05-29T06:23:38.952Z,46.10
2019-05-29T06:26:47.606Z,45.32
2019-05-29T06:29:56.243Z,46.82
2019-05-29T06:33:05.049Z,46.62
2019-05-29T06:36:13.634Z,47.88
2019-05-29T06:39:22.563Z,47.32
2019-05-29T06:42:31.207Z,46.91
2019-05-29T06:45:40.104Z,46.49
2019-05-29T06:49:01.053Z,46.88
2019-05-29T06:52:19.816Z,47.97
2019-05-29T06:55:28.541Z,48.34
2019-05-29T06:58:38.091Z,48.64
2019-05-29T07:01:47.673Z,47.51
2019-05-29T07:04:56.405Z,47.48
2019-05-29T07:08:18.317Z,46.82
2019-05-29T07:11:14.142Z,47.05
2019-05-29T07:14:23.157Z,47.40
2019-05-29T07:17:32.992Z,48.08
2019-05-29T07:20:42.704Z,48.31
2019-05-29T07:23:51.708Z,47.67
2019-05-29T07:27:00.281Z,47.79
2019-05-29T07:30:09.935Z,48.89
2019-05-29T07:33:19.052Z,46.75
2019-05-29T07:36:28.829Z,46.92
2019-05-29T07:39:37.459Z,46.67
2019-05-29T07:42:53.673Z,46.69
2019-05-29T07:45:56.413Z,47.50
2019-05-29T07:49:05.048Z,46.42
2019-05-29T07:52:23.928Z,47.85
2019-05-29T07:55:43.164Z,48.84
2019-05-29T07:59:01.540Z,48.26
2019-05-29T08:02:02.284Z,48.16
2019-05-29T08:05:13.184Z,48.02
2019-05-29T08:08:32.140Z,48.27
2019-05-29T08:11:41.513Z,47.42
2019-05-29T08:14:51.882Z,47.51
2019-05-29T08:18:00.656Z,47.43
2019-05-29T08:21:19.415Z,48.61
2019-05-29T08:24:28.079Z,49.62
2019-05-29T08:27:36.727Z,49.00
2019-05-29T08:30:51.364Z,49.24
2019-05-29T08:33:56.269Z,48.90
2019-05-29T08:37:07.301Z,48.25
2019-05-29T08:40:14.571Z,48.11
2019-05-29T08:43:23.170Z,49.51
2019-05-29T08:47:00.727Z,48.71
2019-05-29T08:49:54.421Z,48.22
2019-05-29T08:53:13.148Z,48.56
2019-05-29T08:56:21.703Z,46.42
2019-05-29T08:59:30.340Z,46.49
2019-05-29T09:02:38.867Z,47.22
2019-05-29T09:06:04.298Z,45.81
2019-05-29T09:08:57.795Z,46.48
2019-05-29T09:12:16.583Z,46.93
2019-05-29T09:15:25.296Z,47.05
2019-05-29T09:18:34.024Z,47.88
2019-05-29T09:21:42.625Z,47.98
2019-05-29T09:24:51.528Z,47.90
2019-05-29T09:28:00.165Z,47.58
2019-05-29T09:31:08.844Z,47.28
2019-05-29T09:34:18.761Z,47.36
2019-05-29T09:37:28.259Z,46.26
2019-05-29T09:40:37.084Z,43.34
2019-05-29T09:43:58.152Z,43.44
2019-05-29T09:46:56.056Z,44.79
2019-05-29T09:50:07.748Z,43.94
2019-05-29T09:53:16.390Z,43.28
2019-05-29T09:56:25.049Z,43.19
2019-05-29T09:59:43.820Z,41.39
2019-05-29T10:02:52.796Z,42.18
2019-05-29T10:06:04.069Z,42.39
2019-05-29T10:09:16.182Z,42.39
2019-05-29T10:12:24.402Z,41.62
2019-05-29T10:15:33.027Z,41.61
2019-05-29T10:18:52.260Z,41.34
2019-05-29T10:22:12.776Z,40.46
2019-05-29T10:25:31.802Z,41.89
2019-05-29T10:28:55.347Z,42.62
2019-05-29T10:32:01.353Z,42.02
2019-05-29T10:35:10.293Z,41.20
2019-05-29T10:38:18.925Z,41.42
2019-05-29T10:41:28.647Z,41.30
2019-05-29T10:44:37.431Z,40.36
2019-05-29T10:47:47.310Z,40.45
2019-05-29T10:51:06.224Z,39.78
2019-05-29T10:54:15.455Z,40.85
2019-05-29T10:57:34.347Z,42.09
2019-05-29T11:00:42.989Z,41.82
2019-05-29T11:03:52.316Z,41.86
2019-05-29T11:07:01.936Z,41.83
2019-05-29T11:10:13.627Z,43.12
2019-05-29T11:13:22.306Z,43.86
2019-05-29T11:16:32.262Z,43.40
2019-05-29T11:19:51.282Z,42.84
2019-05-29T11:22:59.924Z,41.95
2019-05-29T11:26:08.625Z,43.42
2019-05-29T11:29:17.280Z,43.15
2019-05-29T11:32:26.002Z,42.13
2019-05-29T11:35:34.765Z,41.41
2019-05-29T11:38:43.805Z,41.49
2019-05-29T11:41:52.712Z,41.07
2019-05-29T11:45:03.753Z,41.15
2019-05-29T11:48:22.877Z,40.36
2019-05-29T11:51:44.222Z,39.90
2019-05-29T11:54:55.939Z,39.46
2019-05-29T11:58:02.427Z,38.87
2019-05-29T12:01:11.718Z,38.32
2019-05-29T12:04:26.387Z,38.26
2019-05-29T12:07:30.591Z,38.41
2019-05-29T12:10:39.185Z,38.98
2019-05-29T12:13:47.847Z,39.70
2019-05-29T12:16:58.067Z,41.03
2019-05-29T12:20:26.475Z,39.92
2019-05-29T12:23:26.137Z,40.41
2019-05-29T12:26:29.457Z,39.14
2019-05-29T12:29:38.147Z,39.83
2019-05-29T12:32:45.276Z,39.33
2019-05-29T12:35:54.866Z,38.60
2019-05-29T12:39:04.248Z,35.57
2019-05-29T12:42:13.317Z,34.05
2019-05-29T12:45:21.992Z,34.65
2019-05-29T12:48:30.646Z,36.76
2019-05-29T12:51:37.669Z,37.16
2019-05-29T12:54:46.325Z,36.92
2019-05-29T12:58:05.586Z,36.47
2019-05-29T13:01:13.213Z,35.05
2019-05-29T13:04:21.855Z,33.94
2019-05-29T13:07:30.592Z,33.52
2019-05-29T13:10:38.225Z,33.39
2019-05-29T13:13:46.848Z,33.84
2019-05-29T13:16:56.653Z,33.19
2019-05-29T13:20:31.223Z,31.03
2019-05-29T13:34:38.999Z,32.27
2019-05-29T13:37:50.696Z,32.71
2019-05-29T13:41:00.408Z,32.54
2019-05-29T13:44:09.351Z,33.58
2019-05-29T13:47:21.492Z,33.72
2019-05-29T13:50:30.129Z,33.36
2019-05-29T13:53:38.907Z,33.51
2019-05-29T13:56:47.832Z,33.10
2019-05-29T13:59:57.904Z,34.19
2019-05-29T14:03:07.639Z,33.21
2019-05-29T14:06:17.218Z,34.28
2019-05-29T14:09:25.933Z,34.32
2019-05-29T14:12:44.673Z,34.93
2019-05-29T14:15:53.229Z,34.47
2019-05-29T14:19:02.766Z,35.11
2019-05-29T14:22:11.537Z,34.87
2019-05-29T14:25:36.476Z,35.23
2019-05-29T14:28:45.115Z,35.05
2019-05-29T14:31:53.717Z,35.57
2019-05-29T14:35:04.258Z,35.66
2019-05-29T14:38:15.083Z,34.42
2019-05-29T14:41:23.052Z,33.79
2019-05-29T14:44:31.774Z,32.66
2019-05-29T14:47:40.546Z,34.51
2019-05-29T14:50:49.211Z,34.83
2019-05-29T14:53:58.007Z,35.03
2019-05-29T14:57:19.486Z,34.87
2019-05-29T15:00:25.176Z,35.10
2019-05-29T15:03:40.445Z,35.04
2019-05-29T15:06:49.012Z,34.94
2019-05-29T15:09:57.621Z,35.47
2019-05-29T15:13:06.734Z,36.52
2019-05-29T15:16:15.789Z,36.63
2019-05-29T15:19:24.381Z,35.87
2019-05-29T15:22:32.960Z,35.52
2019-05-29T15:25:41.571Z,35.79
2019-05-29T15:28:50.121Z,35.88
2019-05-29T15:31:58.789Z,34.77
2019-05-29T15:35:12.686Z,35.82
2019-05-29T15:38:18.483Z,35.43
2019-05-29T15:41:27.106Z,34.68
2019-05-29T15:44:35.887Z,35.15
2019-05-29T15:47:43.627Z,35.45
2019-05-29T15:50:52.760Z,34.85
2019-05-29T15:54:35.292Z,34.71
2019-05-29T15:57:44.076Z,34.35
2019-05-29T16:00:51.380Z,34.43
2019-05-29T16:04:00.195Z,34.17
2019-05-29T16:07:09.862Z,33.59
2019-05-29T16:10:20.881Z,34.29
2019-05-29T16:13:29.484Z,34.78
2019-05-29T16:16:38.036Z,33.99
2019-05-29T16:19:46.813Z,33.77
2019-05-29T16:22:57.223Z,33.23
2019-05-29T16:26:05.975Z,34.20
2019-05-29T16:29:16.387Z,33.51
2019-05-29T16:32:26.825Z,34.72
2019-05-29T16:35:37.415Z,34.23
2019-05-29T16:38:45.903Z,34.64
2019-05-29T16:41:54.461Z,35.38
2019-05-29T16:45:03.127Z,36.30
2019-05-29T16:48:25.963Z,35.08
2019-05-29T16:51:34.624Z,34.56
2019-05-29T16:54:43.371Z,33.67
2019-05-29T16:57:52.378Z,33.28
2019-05-29T17:01:00.946Z,33.18
2019-05-29T17:04:09.882Z,33.35
2019-05-29T17:07:18.560Z,33.36
2019-05-29T17:10:37.216Z,33.49
2019-05-29T17:13:45.785Z,33.33
2019-05-29T17:16:54.461Z,33.62
2019-05-29T17:20:03.401Z,34.00
2019-05-29T17:23:12.147Z,33.43
2019-05-29T17:26:20.841Z,33.23
2019-05-29T17:29:29.542Z,33.98
2019-05-29T17:32:38.181Z,34.48
2019-05-29T17:35:46.838Z,34.41
2019-05-29T17:38:55.661Z,33.72
2019-05-29T17:42:04.371Z,34.00
2019-05-29T17:45:14.118Z,34.53
2019-05-29T17:48:23.864Z,34.14
2019-05-29T17:51:32.606Z,34.51
2019-05-29T17:54:40.885Z,34.92
2019-05-29T17:58:03.624Z,35.02
2019-05-29T18:01:12.397Z,35.15
2019-05-29T18:04:22.469Z,34.68
2019-05-29T18:07:31.279Z,35.75
2019-05-29T18:10:39.818Z,37.11
2019-05-29T18:13:48.340Z,35.18
2019-05-29T18:16:56.866Z,36.28
2019-05-29T18:20:17.732Z,37.72
2019-05-29T18:23:36.640Z,37.13
2019-05-29T18:26:47.186Z,39.51
2019-05-29T18:29:55.468Z,40.21
2019-05-29T18:33:04.246Z,40.55
2019-05-29T18:36:12.864Z,39.59
2019-05-29T18:39:22.169Z,39.34
2019-05-29T18:42:30.977Z,37.97
2019-05-29T18:45:39.860Z,37.86
2019-05-29T18:48:49.027Z,42.04
2019-05-29T18:52:15.614Z,42.71
2019-05-29T18:55:25.334Z,42.95
2019-05-29T18:58:35.875Z,41.66
2019-05-29T19:01:45.987Z,42.48
2019-05-29T19:04:55.670Z,42.79
2019-05-29T19:08:05.653Z,43.36
2019-05-29T19:11:14.850Z,43.72
2019-05-29T19:14:25.821Z,43.93
2019-05-29T19:17:35.981Z,43.84
2019-05-29T19:20:56.653Z,43.25
2019-05-29T19:24:05.182Z,42.87
2019-05-29T19:27:12.749Z,43.95
2019-05-29T19:30:33.026Z,44.03
2019-05-29T19:33:41.981Z,44.76
2019-05-29T19:36:50.819Z,44.59
2019-05-29T19:39:59.926Z,45.27
2019-05-29T19:43:08.973Z,45.69
2019-05-29T19:46:28.583Z,46.64
2019-05-29T19:49:47.646Z,47.09
2019-05-29T19:53:07.182Z,47.11
2019-05-29T19:56:27.525Z,46.31
2019-05-29T19:59:36.388Z,47.32
2019-05-29T20:02:45.302Z,48.50
2019-05-29T20:05:55.056Z,47.10
2019-05-29T20:09:04.275Z,46.41
2019-05-29T20:12:12.148Z,46.73
2019-05-29T20:15:31.975Z,46.82
2019-05-29T20:18:41.225Z,45.30
2019-05-29T20:21:49.389Z,45.28
2019-05-29T20:25:09.008Z,46.02
2019-05-29T20:28:17.768Z,43.61
2019-05-29T20:31:26.288Z,43.13
2019-05-29T20:34:47.007Z,42.95
2019-05-29T20:38:06.729Z,44.44
2019-05-29T20:41:15.699Z,43.67
2019-05-29T20:44:24.837Z,45.00
2019-05-29T20:47:33.662Z,45.40
2019-05-29T20:50:43.327Z,46.02
2019-05-29T20:54:03.056Z,45.63
2019-05-29T20:57:12.339Z,44.08
2019-05-29T21:00:21.253Z,44.76
2019-05-29T21:03:30.617Z,45.22
2019-05-29T21:07:06.317Z,44.23
2019-05-29T21:10:15.700Z,43.97
2019-05-29T21:13:24.921Z,43.57
2019-05-29T21:16:34.059Z,43.90
2019-05-29T21:19:44.623Z,45.40
2019-05-29T21:22:53.420Z,44.62
2019-05-29T21:26:01.966Z,43.64
2019-05-29T21:29:10.540Z,44.45
2019-05-29T21:32:48.962Z,44.98
2019-05-29T21:35:57.508Z,45.23
2019-05-29T21:39:09.477Z,45.35
2019-05-29T21:42:18.012Z,45.88
2019-05-29T21:45:26.500Z,45.95
2019-05-29T21:48:35.036Z,46.24
2019-05-29T21:51:53.839Z,45.80
2019-05-29T21:55:02.380Z,45.81
2019-05-29T21:58:11.069Z,45.67
2019-05-29T22:01:18.307Z,45.96
2019-05-29T22:04:26.925Z,46.23
2019-05-29T22:07:35.718Z,46.46
2019-05-29T22:10:44.912Z,47.08
2019-05-29T22:13:54.404Z,47.01
2019-05-29T22:17:13.144Z,47.36
2019-05-29T22:20:21.719Z,47.59
2019-05-29T22:23:30.228Z,47.82
2019-05-29T22:26:38.750Z,47.75
2019-05-29T22:29:47.394Z,48.44
2019-05-29T22:33:06.220Z,48.72
2019-05-29T22:36:14.827Z,49.43
2019-05-29T22:39:23.508Z,49.57
2019-05-29T22:42:32.013Z,50.50
2019-05-29T22:45:40.640Z,50.52
2019-05-29T22:48:47.840Z,50.96
2019-05-29T22:51:56.441Z,50.90
2019-05-29T22:55:06.593Z,51.26
2019-05-29T22:58:27.516Z,51.92
2019-05-29T23:01:36.146Z,51.62
2019-05-29T23:04:44.684Z,52.06
2019-05-29T23:07:54.128Z,52.21
2019-05-29T23:11:13.168Z,52.57
2019-05-29T23:14:22.399Z,52.92
2019-05-29T23:17:31.102Z,53.54
2019-05-29T23:20:49.993Z,53.62
2019-05-29T23:24:09.260Z,53.62
2019-05-29T23:27:17.934Z,54.20
2019-05-29T23:30:29.767Z,54.10
2019-05-29T23:33:37.034Z,54.41
2019-05-29T23:36:45.664Z,54.48
2019-05-29T23:39:55.050Z,54.99
2019-05-29T23:43:03.732Z,55.65
2019-05-29T23:46:23.049Z,55.56
2019-05-29T23:49:33.114Z,55.97
2019-05-29T23:52:41.779Z,56.37
2019-05-29T23:55:50.444Z,56.68
2019-05-29T23:58:59.926Z,56.99
